createdAt,value
2019-04-29T00:02:26.613Z,7.33
2019-04-29T00:04:56.871Z,7.93
2019-04-29T00:07:27.385Z,7.50
2019-04-29T00:09:57.759Z,7.30
2019-04-29T00:12:29.498Z,7.90
2019-04-29T00:15:24.627Z,7.63
2019-04-29T00:18:02.705Z,8.50
2019-04-29T00:20:38.357Z,8.38
2019-04-29T00:23:08.803Z,7.67
2019-04-29T00:25:38.498Z,7.13
2019-04-29T00:28:08.765Z,6.77
2019-04-29T00:30:38.586Z,8.23
2019-04-29T00:33:08.848Z,7.73
2019-04-29T00:35:39.315Z,7.80
2019-04-29T00:38:46.771Z,6.97
2019-04-29T00:41:54.511Z,7.40
2019-04-29T00:44:24.329Z,7.70
2019-04-29T00:46:53.933Z,8.07
2019-04-29T00:49:24.194Z,7.63
2019-04-29T00:51:53.854Z,7.90
2019-04-29T00:54:33.052Z,9.33
2019-04-29T00:57:03.597Z,7.97
2019-04-29T00:59:33.283Z,8.73
2019-04-29T01:02:03.671Z,8.37
2019-04-29T01:04:33.398Z,7.93
2019-04-29T01:07:03.731Z,7.77
2019-04-29T01:09:33.516Z,7.80
2019-04-29T01:12:03.820Z,7.77
2019-04-29T01:14:34.186Z,8.03
2019-04-29T01:17:03.937Z,8.10
2019-04-29T01:19:34.221Z,8.20
2019-04-29T01:22:04.599Z,8.43
2019-04-29T01:24:34.979Z,7.72
2019-04-29T01:27:20.215Z,7.77
2019-04-29T01:29:50.583Z,8.43
2019-04-29T01:32:21.665Z,8.73
2019-04-29T01:34:55.316Z,8.27
2019-04-29T01:37:40.134Z,8.40
2019-04-29T01:40:29.813Z,8.50
2019-04-29T01:43:00.244Z,8.07
2019-04-29T01:45:30.627Z,8.03
2019-04-29T01:48:00.975Z,7.60
2019-04-29T01:50:31.292Z,8.63
2019-04-29T01:53:01.652Z,7.47
2019-04-29T01:55:32.023Z,8.77
2019-04-29T01:58:02.406Z,8.77
2019-04-29T02:00:32.094Z,9.13
2019-04-29T02:03:02.393Z,9.23
2019-04-29T02:05:32.761Z,8.80
2019-04-29T02:08:03.125Z,9.33
2019-04-29T02:10:34.058Z,9.00
2019-04-29T02:13:04.430Z,9.77
2019-04-29T02:15:34.091Z,9.70
2019-04-29T02:18:04.422Z,8.77
2019-04-29T02:20:34.140Z,9.77
2019-04-29T02:23:21.446Z,10.10
2019-04-29T02:25:51.837Z,8.90
2019-04-29T02:28:21.535Z,9.90
2019-04-29T02:30:51.441Z,10.93
2019-04-29T02:33:21.705Z,10.97
2019-04-29T02:35:51.401Z,8.80
2019-04-29T02:38:32.140Z,9.93
2019-04-29T02:41:08.652Z,11.13
2019-04-29T02:43:40.453Z,10.87
2019-04-29T02:46:10.834Z,10.37
2019-04-29T02:48:41.176Z,10.30
2019-04-29T02:51:13.451Z,9.90
2019-04-29T02:53:43.798Z,10.50
2019-04-29T02:56:13.595Z,10.87
2019-04-29T02:58:53.958Z,10.47
2019-04-29T03:01:44.356Z,10.53
2019-04-29T03:04:16.802Z,10.50
2019-04-29T03:06:47.231Z,11.03
2019-04-29T03:09:17.572Z,10.47
2019-04-29T03:11:47.946Z,9.80
2019-04-29T03:14:18.285Z,9.90
2019-04-29T03:16:49.266Z,11.23
2019-04-29T03:19:25.167Z,11.60
2019-04-29T03:21:56.940Z,11.97
2019-04-29T03:24:27.238Z,12.40
2019-04-29T03:26:57.630Z,12.30
2019-04-29T03:29:28.098Z,11.87
2019-04-29T03:31:58.992Z,11.97
2019-04-29T03:34:29.638Z,12.70
2019-04-29T03:36:59.981Z,11.50
2019-04-29T03:39:30.420Z,11.70
2019-04-29T03:42:00.824Z,11.80
2019-04-29T03:44:31.186Z,12.07
2019-04-29T03:47:01.561Z,12.20
2019-04-29T03:49:31.923Z,12.27
2019-04-29T03:52:01.747Z,13.07
2019-04-29T03:54:31.946Z,12.73
2019-04-29T03:57:02.306Z,13.93
2019-04-29T03:59:32.651Z,14.07
2019-04-29T04:02:08.872Z,13.57
2019-04-29T04:05:08.138Z,13.00
2019-04-29T04:07:44.143Z,13.23
2019-04-29T04:10:13.949Z,12.90
2019-04-29T04:12:44.219Z,13.70
2019-04-29T04:15:13.929Z,13.73
2019-04-29T04:18:03.138Z,13.73
2019-04-29T04:20:33.553Z,12.93
2019-04-29T04:23:03.911Z,14.17
2019-04-29T04:25:33.642Z,13.48
2019-04-29T04:28:03.900Z,13.07
2019-04-29T04:30:33.574Z,12.17
2019-04-29T04:33:03.878Z,12.00
2019-04-29T04:35:33.578Z,11.93
2019-04-29T04:38:03.942Z,11.27
2019-04-29T04:40:38.119Z,13.30
2019-04-29T04:43:08.388Z,12.17
2019-04-29T04:45:38.727Z,12.90
2019-04-29T04:48:09.121Z,13.50
2019-04-29T04:50:39.443Z,12.23
2019-04-29T04:53:09.832Z,12.77
2019-04-29T04:55:41.778Z,13.10
2019-04-29T04:58:12.166Z,14.03
2019-04-29T05:00:42.641Z,14.43
2019-04-29T05:03:13.051Z,12.77
2019-04-29T05:05:43.415Z,13.57
2019-04-29T05:08:13.785Z,16.97
2019-04-29T05:10:44.167Z,15.80
2019-04-29T05:13:27.258Z,15.17
2019-04-29T05:15:45.881Z,16.07
2019-04-29T05:18:16.157Z,16.97
2019-04-29T05:20:46.488Z,16.13
2019-04-29T05:23:16.867Z,15.58
2019-04-29T05:25:47.215Z,17.57
2019-04-29T05:28:17.579Z,17.50
2019-04-29T05:30:47.952Z,16.50
2019-04-29T05:33:18.329Z,16.57
2019-04-29T05:36:07.583Z,15.03
2019-04-29T05:38:50.647Z,16.20
2019-04-29T05:41:21.905Z,15.37
2019-04-29T05:44:13.425Z,14.47
2019-04-29T05:46:50.250Z,14.33
2019-04-29T05:49:25.347Z,14.67
2019-04-29T05:52:20.964Z,15.23
2019-04-29T05:54:51.238Z,13.83
2019-04-29T05:57:25.422Z,14.03
2019-04-29T05:59:53.545Z,14.47
2019-04-29T06:02:33.168Z,15.03
2019-04-29T06:04:55.913Z,15.07
2019-04-29T06:07:26.967Z,14.23
2019-04-29T06:09:57.823Z,13.87
2019-04-29T06:12:28.214Z,13.87
2019-04-29T06:14:58.559Z,13.90
2019-04-29T06:17:28.942Z,13.50
2019-04-29T06:19:59.244Z,13.03
2019-04-29T06:22:29.668Z,12.73
2019-04-29T06:25:00.049Z,13.93
2019-04-29T06:27:33.269Z,12.60
2019-04-29T06:30:03.113Z,14.03
2019-04-29T06:32:34.406Z,12.23
2019-04-29T06:35:04.987Z,11.97
2019-04-29T06:37:34.703Z,11.90
2019-04-29T06:40:05.399Z,12.10
2019-04-29T06:42:35.081Z,12.37
2019-04-29T06:45:05.685Z,12.90
2019-04-29T06:47:35.371Z,13.37
2019-04-29T06:50:06.351Z,12.00
2019-04-29T06:52:36.702Z,11.53
2019-04-29T06:55:06.501Z,12.47
2019-04-29T06:57:36.825Z,12.77
2019-04-29T07:00:06.565Z,12.63
2019-04-29T07:02:36.969Z,11.93
2019-04-29T07:05:08.203Z,12.10
2019-04-29T07:07:38.588Z,11.13
2019-04-29T07:10:09.854Z,9.97
2019-04-29T07:12:42.755Z,10.03
2019-04-29T07:15:13.862Z,9.90
2019-04-29T07:17:43.635Z,9.17
2019-04-29T07:20:14.092Z,9.57
2019-04-29T07:22:43.775Z,10.23
2019-04-29T07:25:14.194Z,10.37
2019-04-29T07:27:44.577Z,9.87
2019-04-29T07:30:14.950Z,10.43
2019-04-29T07:32:47.161Z,11.27
2019-04-29T07:35:17.843Z,10.60
2019-04-29T07:37:48.183Z,9.43
2019-04-29T07:40:18.980Z,10.40
2019-04-29T07:42:49.347Z,9.63
2019-04-29T07:45:44.133Z,10.98
2019-04-29T07:48:06.439Z,10.57
2019-04-29T07:50:37.866Z,10.37
2019-04-29T07:53:07.528Z,9.67
2019-04-29T07:55:37.846Z,10.53
2019-04-29T07:58:08.225Z,10.23
2019-04-29T08:00:37.927Z,9.87
2019-04-29T08:03:08.037Z,7.93
2019-04-29T08:05:38.340Z,7.80
2019-04-29T08:08:08.814Z,8.67
2019-04-29T08:10:52.510Z,8.43
2019-04-29T08:13:11.560Z,8.20
2019-04-29T08:15:43.559Z,7.57
2019-04-29T08:18:16.322Z,5.80
2019-04-29T08:20:45.302Z,4.80
2019-04-29T08:23:14.967Z,4.20
2019-04-29T08:25:45.263Z,5.80
2019-04-29T08:28:15.766Z,5.47
2019-04-29T08:30:47.303Z,5.23
2019-04-29T08:33:17.828Z,5.87
2019-04-29T08:35:48.208Z,5.73
2019-04-29T08:38:19.478Z,6.30
2019-04-29T08:40:49.912Z,5.93
2019-04-29T08:43:42.875Z,4.43
2019-04-29T08:46:16.857Z,4.07
2019-04-29T08:48:47.176Z,3.27
2019-04-29T08:51:16.919Z,4.50
2019-04-29T08:53:46.524Z,3.47
2019-04-29T08:56:16.214Z,4.20
2019-04-29T08:58:49.269Z,4.10
2019-04-29T09:01:19.703Z,3.47
2019-04-29T09:03:53.819Z,4.10
2019-04-29T09:06:21.425Z,4.10
2019-04-29T09:08:55.201Z,3.67
2019-04-29T09:11:23.795Z,3.73
2019-04-29T09:13:54.164Z,4.03
2019-04-29T09:16:23.882Z,3.35
2019-04-29T09:18:54.271Z,2.70
2019-04-29T09:21:23.997Z,2.40
2019-04-29T09:23:54.424Z,2.50
2019-04-29T09:26:35.653Z,2.13
2019-04-29T09:29:23.317Z,2.40
2019-04-29T09:32:07.980Z,2.70
2019-04-29T09:34:37.741Z,2.90
2019-04-29T09:37:08.014Z,3.87
2019-04-29T09:39:43.232Z,3.60
2019-04-29T09:42:51.929Z,3.75
2019-04-29T09:45:31.723Z,3.00
2019-04-29T09:51:17.344Z,2.00
2019-04-29T09:53:42.597Z,3.30
2019-04-29T09:56:23.703Z,3.50
2019-04-29T09:59:13.928Z,3.30
2019-04-29T10:01:55.067Z,3.20
2019-04-29T10:04:36.072Z,2.17
2019-04-29T10:07:06.917Z,2.10
2019-04-29T10:09:56.185Z,2.05
2019-04-29T10:12:15.075Z,2.87
2019-04-29T10:14:45.426Z,3.20
2019-04-29T10:17:33.200Z,2.73
2019-04-29T10:20:32.162Z,2.00
2019-04-29T10:23:02.549Z,0.90
2019-04-29T10:25:32.127Z,1.67
2019-04-29T10:28:01.793Z,3.00
2019-04-29T10:30:32.745Z,1.40
2019-04-29T10:33:04.511Z,0.95
2019-04-29T10:35:34.848Z,1.00
2019-04-29T10:38:05.941Z,1.17
2019-04-29T10:40:46.795Z,1.15
2019-04-29T10:43:39.260Z,1.70
2019-04-29T10:46:29.963Z,1.47
2019-04-29T10:49:10.325Z,1.40
2019-04-29T10:51:40.074Z,1.50
2019-04-29T10:54:14.141Z,1.23
2019-04-29T10:56:47.491Z,1.20
2019-04-29T10:59:17.863Z,1.43
2019-04-29T11:02:35.520Z,1.50
2019-04-29T11:05:29.514Z,1.40
2019-04-29T11:08:22.408Z,1.50
2019-04-29T11:11:02.202Z,1.47
2019-04-29T11:13:25.968Z,1.40
2019-04-29T11:15:56.386Z,1.73
2019-04-29T11:18:26.938Z,1.40
2019-04-29T11:20:56.646Z,1.30
2019-04-29T11:23:42.106Z,0.93
2019-04-29T11:26:32.397Z,1.00
2019-04-29T11:29:05.539Z,1.50
2019-04-29T11:31:38.245Z,1.23
2019-04-29T11:34:20.717Z,1.60
2019-04-29T11:36:50.231Z,1.93
2019-04-29T11:39:20.906Z,1.80
2019-04-29T11:41:54.618Z,2.20
2019-04-29T11:44:26.474Z,1.50
2019-04-29T11:46:55.289Z,1.47
2019-04-29T11:49:36.627Z,1.55
2019-04-29T11:52:09.741Z,1.50
2019-04-29T11:54:57.325Z,1.42
2019-04-29T11:57:51.218Z,1.83
2019-04-29T12:00:40.442Z,1.70
2019-04-29T12:03:14.501Z,1.30
2019-04-29T12:05:55.338Z,1.90
2019-04-29T12:08:25.714Z,2.03
2019-04-29T12:11:06.778Z,1.60
2019-04-29T12:13:45.683Z,1.53
2019-04-29T12:16:26.561Z,1.77
2019-04-29T12:19:01.879Z,1.50
2019-04-29T12:21:36.646Z,2.07
2019-04-29T12:24:08.093Z,1.83
2019-04-29T12:26:43.176Z,1.40
2019-04-29T12:29:13.789Z,1.53
2019-04-29T12:32:08.870Z,1.40
2019-04-29T12:35:16.701Z,1.63
2019-04-29T12:38:05.965Z,1.67
2019-04-29T12:41:20.466Z,1.73
2019-04-29T12:43:54.129Z,1.70
2019-04-29T12:46:29.498Z,1.83
2019-04-29T12:49:03.669Z,1.63
2019-04-29T12:51:31.135Z,1.80
2019-04-29T12:54:01.396Z,1.40
2019-04-29T12:56:36.136Z,1.30
2019-04-29T12:59:06.763Z,2.17
2019-04-29T13:01:58.538Z,1.50
2019-04-29T13:04:49.931Z,1.30
2019-04-29T13:07:35.459Z,1.80
2019-04-29T13:10:20.876Z,1.37
2019-04-29T13:12:50.584Z,1.50
2019-04-29T13:15:33.281Z,1.40
2019-04-29T13:18:12.806Z,1.10
2019-04-29T13:20:41.521Z,1.70
2019-04-29T13:23:17.326Z,1.13
2019-04-29T13:25:42.607Z,1.27
2019-04-29T13:28:12.317Z,1.20
2019-04-29T13:30:43.390Z,1.20
2019-04-29T13:33:16.616Z,1.17
2019-04-29T13:35:49.565Z,1.20
2019-04-29T13:38:18.381Z,1.03
2019-04-29T13:40:48.053Z,1.37
2019-04-29T13:43:20.756Z,1.30
2019-04-29T13:46:12.104Z,1.23
2019-04-29T13:49:12.249Z,1.30
2019-04-29T13:51:36.323Z,1.20
2019-04-29T13:54:06.562Z,1.40
2019-04-29T13:56:54.824Z,1.40
2019-04-29T13:59:12.557Z,1.20
2019-04-29T14:02:01.227Z,1.23
2019-04-29T14:04:30.211Z,1.20
2019-04-29T14:07:00.607Z,1.10
2019-04-29T14:09:30.938Z,1.20
2019-04-29T14:12:15.319Z,1.20
2019-04-29T14:14:33.311Z,1.10
2019-04-29T14:17:24.271Z,2.00
2019-04-29T14:19:40.906Z,1.20
2019-04-29T14:22:06.476Z,1.10
2019-04-29T14:24:36.755Z,1.57
2019-04-29T14:27:07.164Z,1.40
2019-04-29T14:29:37.497Z,1.77
2019-04-29T14:32:07.321Z,1.30
2019-04-29T14:35:02.605Z,1.10
2019-04-29T14:37:32.991Z,1.53
2019-04-29T14:40:07.135Z,1.20
2019-04-29T14:42:57.041Z,1.30
2019-04-29T14:45:33.903Z,1.10
2019-04-29T14:48:14.402Z,1.37
2019-04-29T14:50:44.205Z,1.53
2019-04-29T14:53:13.786Z,1.57
2019-04-29T14:55:44.104Z,1.40
2019-04-29T14:58:13.804Z,1.43
2019-04-29T15:01:01.933Z,1.43
2019-04-29T15:03:34.240Z,1.50
2019-04-29T15:06:04.649Z,1.87
2019-04-29T15:08:36.183Z,1.37
2019-04-29T15:11:08.982Z,1.57
2019-04-29T15:13:37.769Z,1.50
2019-04-29T15:16:16.029Z,1.60
2019-04-29T15:19:13.202Z,1.40
2019-04-29T15:21:49.433Z,1.50
2019-04-29T15:24:20.315Z,1.70
2019-04-29T15:26:50.691Z,1.50
2019-04-29T15:29:21.084Z,1.30
2019-04-29T15:31:51.465Z,1.27
2019-04-29T15:34:21.150Z,1.47
2019-04-29T15:36:50.774Z,1.40
2019-04-29T15:39:24.560Z,1.10
2019-04-29T15:41:54.445Z,1.47
2019-04-29T15:44:24.269Z,1.50
2019-04-29T15:46:54.670Z,1.90
2019-04-29T15:49:26.515Z,2.10
2019-04-29T15:51:56.362Z,2.93
2019-04-29T15:54:26.607Z,3.33
2019-04-29T15:56:57.026Z,2.83
2019-04-29T15:59:27.549Z,3.00
2019-04-29T16:01:59.073Z,2.87
2019-04-29T16:04:34.326Z,3.40
2019-04-29T16:07:39.014Z,2.90
2019-04-29T16:10:27.327Z,2.90
2019-04-29T16:12:59.805Z,2.73
2019-04-29T16:15:30.123Z,2.80
2019-04-29T16:18:05.136Z,3.30
2019-04-29T16:20:32.554Z,3.20
2019-04-29T16:23:02.277Z,3.00
2019-04-29T16:25:31.875Z,3.40
2019-04-29T16:28:02.126Z,3.43
2019-04-29T16:30:34.781Z,3.10
2019-04-29T16:33:12.968Z,3.00
2019-04-29T16:35:36.472Z,3.00
2019-04-29T16:38:11.446Z,2.90
2019-04-29T16:40:44.447Z,2.93
2019-04-29T16:43:32.407Z,2.70
2019-04-29T16:46:10.635Z,2.87
2019-04-29T16:48:40.379Z,3.50
2019-04-29T16:51:14.600Z,3.73
2019-04-29T16:53:41.208Z,3.67
2019-04-29T16:58:43.460Z,3.50
2019-04-29T17:01:13.266Z,4.30
2019-04-29T17:03:42.866Z,3.17
2019-04-29T17:06:13.256Z,3.40
2019-04-29T17:09:05.226Z,3.77
2019-04-29T17:11:35.387Z,4.07
2019-04-29T17:14:10.177Z,3.57
2019-04-29T17:16:36.308Z,3.97
2019-04-29T17:19:06.566Z,3.67
2019-04-29T17:21:36.231Z,3.70
2019-04-29T17:24:06.511Z,3.67
2019-04-29T17:26:50.317Z,3.20
2019-04-29T17:29:49.453Z,3.47
2019-04-29T17:32:44.374Z,3.53
2019-04-29T17:35:10.190Z,3.87
2019-04-29T17:35:14.555Z,3.60
2019-04-29T17:37:40.908Z,3.70
2019-04-29T17:40:13.201Z,3.83
2019-04-29T17:42:44.612Z,4.20
2019-04-29T17:45:27.249Z,4.57
2019-04-29T17:47:55.883Z,4.30
2019-04-29T17:50:32.746Z,4.50
2019-04-29T17:53:04.669Z,4.50
2019-04-29T17:55:45.000Z,5.58
2019-04-29T17:58:19.763Z,5.07
2019-04-29T18:01:15.519Z,3.50
2019-04-29T18:04:07.221Z,3.80
2019-04-29T18:06:45.565Z,4.00
2019-04-29T18:09:28.269Z,3.77
2019-04-29T18:12:00.849Z,3.87
2019-04-29T18:14:38.007Z,3.70
2019-04-29T18:17:05.048Z,3.90
2019-04-29T18:19:55.397Z,3.67
2019-04-29T18:22:50.274Z,3.87
2019-04-29T18:25:36.804Z,4.40
2019-04-29T18:28:07.225Z,4.80
2019-04-29T18:30:38.435Z,5.17
2019-04-29T18:33:08.955Z,5.00
2019-04-29T18:35:39.405Z,6.20
2019-04-29T18:38:12.056Z,6.40
2019-04-29T18:40:42.381Z,7.75
2019-04-29T18:43:12.394Z,7.77
2019-04-29T18:45:55.213Z,7.73
2019-04-29T18:48:18.948Z,9.67
2019-04-29T18:50:47.668Z,8.00
2019-04-29T18:53:18.137Z,8.10
2019-04-29T18:55:48.544Z,9.27
2019-04-29T18:58:18.996Z,8.57
2019-04-29T19:00:52.330Z,8.33
2019-04-29T19:03:29.665Z,9.10
2019-04-29T19:06:03.265Z,8.50
2019-04-29T19:08:31.916Z,8.63
2019-04-29T19:11:02.364Z,8.70
2019-04-29T19:13:32.111Z,9.17
2019-04-29T19:16:09.511Z,7.13
2019-04-29T19:18:34.455Z,6.85
2019-04-29T19:21:04.142Z,7.13
2019-04-29T19:23:35.920Z,7.67
2019-04-29T19:26:06.543Z,8.17
2019-04-29T19:28:37.083Z,8.10
2019-04-29T19:31:09.508Z,7.50
2019-04-29T19:33:39.465Z,6.43
2019-04-29T19:36:17.401Z,7.33
2019-04-29T19:38:43.331Z,7.47
2019-04-29T19:41:16.296Z,8.20
2019-04-29T19:43:48.362Z,7.67
2019-04-29T19:46:24.298Z,6.80
2019-04-29T19:48:49.322Z,7.73
2019-04-29T19:51:22.915Z,8.90
2019-04-29T19:53:51.651Z,7.53
2019-04-29T19:56:24.263Z,8.87
2019-04-29T19:58:57.330Z,9.10
2019-04-29T20:01:30.834Z,9.10
2019-04-29T20:04:17.881Z,10.73
2019-04-29T20:06:44.902Z,10.30
2019-04-29T20:09:21.682Z,12.80
2019-04-29T20:11:49.327Z,12.30
2019-04-29T20:14:26.221Z,12.37
2019-04-29T20:17:13.857Z,16.07
2019-04-29T20:19:55.475Z,16.40
2019-04-29T20:22:18.372Z,18.10
2019-04-29T20:24:50.617Z,18.17
2019-04-29T20:27:20.684Z,18.77
2019-04-29T20:29:51.597Z,18.03
2019-04-29T20:32:26.707Z,18.13
2019-04-29T20:34:57.466Z,19.43
2019-04-29T20:37:26.199Z,18.10
2019-04-29T20:40:00.556Z,18.20
2019-04-29T20:42:28.706Z,18.93
2019-04-29T20:44:59.215Z,20.37
2019-04-29T20:47:37.396Z,18.87
2019-04-29T20:50:01.115Z,16.73
2019-04-29T20:52:52.204Z,17.90
2019-04-29T20:55:22.625Z,18.60
2019-04-29T20:57:54.099Z,18.93
2019-04-29T21:00:26.989Z,18.37
2019-04-29T21:02:57.031Z,18.10
2019-04-29T21:05:27.862Z,18.47
2019-04-29T21:08:03.318Z,18.47
2019-04-29T21:10:30.591Z,22.80
2019-04-29T21:13:20.262Z,22.43
2019-04-29T21:15:55.687Z,21.40
2019-04-29T21:18:27.101Z,21.63
2019-04-29T21:20:59.690Z,21.10
2019-04-29T21:23:31.527Z,20.73
2019-04-29T21:26:05.384Z,20.90
2019-04-29T21:28:38.099Z,20.53
2019-04-29T21:31:05.277Z,22.20
2019-04-29T21:33:35.717Z,21.30
2019-04-29T21:36:19.810Z,20.80
2019-04-29T21:39:01.943Z,22.37
2019-04-29T21:41:50.688Z,22.50
2019-04-29T21:44:23.673Z,23.77
2019-04-29T21:46:52.982Z,24.23
2019-04-29T21:49:23.391Z,24.23
2019-04-29T21:51:55.462Z,24.00
2019-04-29T21:54:25.928Z,24.33
2019-04-29T21:56:56.282Z,24.77
2019-04-29T21:59:26.643Z,24.30
2019-04-29T22:01:59.144Z,25.73
2019-04-29T22:04:32.837Z,25.73
2019-04-29T22:07:04.866Z,26.53
2019-04-29T22:09:36.158Z,25.43
2019-04-29T22:12:05.563Z,25.70
2019-04-29T22:14:36.102Z,26.65
2019-04-29T22:17:06.436Z,25.03
2019-04-29T22:19:36.863Z,25.73
2019-04-29T22:22:07.406Z,28.10
2019-04-29T22:24:37.789Z,25.90
2019-04-29T22:27:08.397Z,27.80
2019-04-29T22:29:39.336Z,26.97
2019-04-29T22:32:14.420Z,25.70
2019-04-29T22:34:42.232Z,25.07
2019-04-29T22:37:12.607Z,25.53
2019-04-29T22:39:42.961Z,26.43
2019-04-29T22:42:32.236Z,27.33
2019-04-29T22:45:02.869Z,26.20
2019-04-29T22:47:33.221Z,29.70
2019-04-29T22:50:04.569Z,28.30
2019-04-29T22:52:36.719Z,27.27
2019-04-29T22:55:07.535Z,28.77
2019-04-29T22:57:37.941Z,29.20
2019-04-29T23:00:08.045Z,28.93
2019-04-29T23:02:38.304Z,30.07
2019-04-29T23:05:08.750Z,30.20
2019-04-29T23:07:39.120Z,31.57
2019-04-29T23:10:09.697Z,28.13
2019-04-29T23:12:40.153Z,29.07
2019-04-29T23:15:09.910Z,30.30
2019-04-29T23:17:42.607Z,30.20
2019-04-29T23:20:29.011Z,30.90
2019-04-29T23:23:05.288Z,30.80
2019-04-29T23:25:40.594Z,30.37
2019-04-29T23:28:10.963Z,32.30
2019-04-29T23:30:41.287Z,30.37
2019-04-29T23:33:11.630Z,29.83
2019-04-29T23:35:41.976Z,31.23
2019-04-29T23:38:12.314Z,31.90
2019-04-29T23:40:42.821Z,30.03
2019-04-29T23:43:13.157Z,30.37
2019-04-29T23:45:44.984Z,32.50
2019-04-29T23:48:15.353Z,30.00
2019-04-29T23:50:45.465Z,29.87
2019-04-29T23:53:15.856Z,29.43
2019-04-29T23:55:46.229Z,33.77
2019-04-29T23:58:38.700Z,28.20
